sensor_id;sensor_type;location;lat;lon;timestamp;P1;durP1;ratioP1;P2;durP2;ratioP2
72949;SDS011;64868;45.710;9.590;2023-04-24T00:01:54;10.63;;;5.78;;
72949;SDS011;64868;45.710;9.590;2023-04-24T00:04:24;11.20;;;5.57;;
72949;SDS011;64868;45.710;9.590;2023-04-24T00:06:54;11.00;;;5.82;;
72949;SDS011;64868;45.710;9.590;2023-04-24T00:09:27;10.55;;;5.97;;
72949;SDS011;64868;45.710;9.590;2023-04-24T00:11:59;10.98;;;6.55;;
72949;SDS011;64868;45.710;9.590;2023-04-24T00:14:32;12.45;;;6.70;;
72949;SDS011;64868;45.710;9.590;2023-04-24T00:17:00;11.83;;;6.20;;
72949;SDS011;64868;45.710;9.590;2023-04-24T00:19:33;9.88;;;5.93;;
72949;SDS011;64868;45.710;9.590;2023-04-24T00:22:06;14.57;;;8.70;;
72949;SDS011;64868;45.710;9.590;2023-04-24T00:24:33;14.65;;;9.00;;
72949;SDS011;64868;45.710;9.590;2023-04-24T00:26:59;14.52;;;8.77;;
72949;SDS011;64868;45.710;9.590;2023-04-24T00:29:31;13.32;;;8.23;;
72949;SDS011;64868;45.710;9.590;2023-04-24T00:32:04;10.40;;;6.30;;
72949;SDS011;64868;45.710;9.590;2023-04-24T00:34:34;12.88;;;7.00;;
72949;SDS011;64868;45.710;9.590;2023-04-24T00:37:07;14.20;;;6.97;;
72949;SDS011;64868;45.710;9.590;2023-04-24T00:39:37;12.13;;;6.50;;
72949;SDS011;64868;45.710;9.590;2023-04-24T00:42:07;12.07;;;6.53;;
72949;SDS011;64868;45.710;9.590;2023-04-24T00:44:39;12.65;;;6.97;;
72949;SDS011;64868;45.710;9.590;2023-04-24T00:47:07;12.70;;;6.97;;
72949;SDS011;64868;45.710;9.590;2023-04-24T00:49:37;10.20;;;6.28;;
72949;SDS011;64868;45.710;9.590;2023-04-24T00:52:10;11.10;;;5.90;;
72949;SDS011;64868;45.710;9.590;2023-04-24T00:54:45;11.18;;;5.72;;
72949;SDS011;64868;45.710;9.590;2023-04-24T00:57:15;8.55;;;5.28;;
72949;SDS011;64868;45.710;9.590;2023-04-24T00:59:45;10.23;;;5.40;;
72949;SDS011;64868;45.710;9.590;2023-04-24T01:02:18;10.18;;;6.00;;
72949;SDS011;64868;45.710;9.590;2023-04-24T01:04:50;12.07;;;6.20;;
72949;SDS011;64868;45.710;9.590;2023-04-24T01:07:23;12.98;;;6.82;;
72949;SDS011;64868;45.710;9.590;2023-04-24T01:09:53;14.40;;;6.68;;
72949;SDS011;64868;45.710;9.590;2023-04-24T01:12:23;12.18;;;7.57;;
72949;SDS011;64868;45.710;9.590;2023-04-24T01:14:53;14.55;;;7.75;;
72949;SDS011;64868;45.710;9.590;2023-04-24T01:17:24;12.30;;;6.93;;
72949;SDS011;64868;45.710;9.590;2023-04-24T01:19:57;10.88;;;6.72;;
72949;SDS011;64868;45.710;9.590;2023-04-24T01:22:31;12.23;;;6.80;;
72949;SDS011;64868;45.710;9.590;2023-04-24T01:25:04;16.50;;;6.97;;
72949;SDS011;64868;45.710;9.590;2023-04-24T01:27:37;10.57;;;6.25;;
72949;SDS011;64868;45.710;9.590;2023-04-24T01:30:10;12.32;;;6.55;;
72949;SDS011;64868;45.710;9.590;2023-04-24T01:32:38;10.02;;;5.55;;
72949;SDS011;64868;45.710;9.590;2023-04-24T01:35:11;10.77;;;5.50;;
72949;SDS011;64868;45.710;9.590;2023-04-24T01:37:43;12.13;;;6.15;;
72949;SDS011;64868;45.710;9.590;2023-04-24T01:40:16;12.02;;;6.35;;
72949;SDS011;64868;45.710;9.590;2023-04-24T01:42:49;10.82;;;6.10;;
72949;SDS011;64868;45.710;9.590;2023-04-24T01:45:19;12.68;;;5.88;;
72949;SDS011;64868;45.710;9.590;2023-04-24T01:47:52;10.18;;;6.00;;
72949;SDS011;64868;45.710;9.590;2023-04-24T01:50:25;9.98;;;5.72;;
72949;SDS011;64868;45.710;9.590;2023-04-24T01:52:57;11.02;;;5.85;;
72949;SDS011;64868;45.710;9.590;2023-04-24T01:55:30;10.63;;;6.05;;
72949;SDS011;64868;45.710;9.590;2023-04-24T01:58:02;11.05;;;5.85;;
72949;SDS011;64868;45.710;9.590;2023-04-24T02:00:35;13.07;;;6.10;;
72949;SDS011;64868;45.710;9.590;2023-04-24T02:03:08;11.73;;;7.00;;
72949;SDS011;64868;45.710;9.590;2023-04-24T02:05:40;12.63;;;6.15;;
72949;SDS011;64868;45.710;9.590;2023-04-24T02:08:15;12.32;;;6.05;;
72949;SDS011;64868;45.710;9.590;2023-04-24T02:10:43;9.82;;;5.78;;
72949;SDS011;64868;45.710;9.590;2023-04-24T02:13:16;10.00;;;5.70;;
72949;SDS011;64868;45.710;9.590;2023-04-24T02:15:48;10.23;;;5.45;;
72949;SDS011;64868;45.710;9.590;2023-04-24T02:18:19;10.35;;;4.90;;
72949;SDS011;64868;45.710;9.590;2023-04-24T02:20:50;8.60;;;4.75;;
72949;SDS011;64868;45.710;9.590;2023-04-24T02:23:22;11.10;;;5.18;;
72949;SDS011;64868;45.710;9.590;2023-04-24T02:25:50;9.02;;;4.75;;
72949;SDS011;64868;45.710;9.590;2023-04-24T02:28:20;9.48;;;4.93;;
72949;SDS011;64868;45.710;9.590;2023-04-24T02:30:53;10.73;;;4.75;;
72949;SDS011;64868;45.710;9.590;2023-04-24T02:33:26;8.48;;;4.05;;
72949;SDS011;64868;45.710;9.590;2023-04-24T02:35:56;7.30;;;3.65;;
72949;SDS011;64868;45.710;9.590;2023-04-24T02:38:29;6.75;;;3.30;;
72949;SDS011;64868;45.710;9.590;2023-04-24T02:40:59;5.85;;;3.10;;
72949;SDS011;64868;45.710;9.590;2023-04-24T02:43:31;7.32;;;2.90;;
72949;SDS011;64868;45.710;9.590;2023-04-24T02:46:04;6.30;;;2.45;;
72949;SDS011;64868;45.710;9.590;2023-04-24T02:48:37;4.55;;;1.88;;
72949;SDS011;64868;45.710;9.590;2023-04-24T02:51:07;5.70;;;2.10;;
72949;SDS011;64868;45.710;9.590;2023-04-24T02:53:37;5.97;;;1.65;;
72949;SDS011;64868;45.710;9.590;2023-04-24T02:56:10;4.90;;;2.00;;
72949;SDS011;64868;45.710;9.590;2023-04-24T02:58:40;6.55;;;2.25;;
72949;SDS011;64868;45.710;9.590;2023-04-24T03:01:12;5.03;;;2.17;;
72949;SDS011;64868;45.710;9.590;2023-04-24T03:03:45;8.15;;;2.60;;
72949;SDS011;64868;45.710;9.590;2023-04-24T03:06:18;5.43;;;2.30;;
72949;SDS011;64868;45.710;9.590;2023-04-24T03:08:48;6.78;;;2.20;;
72949;SDS011;64868;45.710;9.590;2023-04-24T03:11:20;5.20;;;2.10;;
72949;SDS011;64868;45.710;9.590;2023-04-24T03:13:53;5.38;;;2.30;;
72949;SDS011;64868;45.710;9.590;2023-04-24T03:16:18;6.13;;;2.33;;
72949;SDS011;64868;45.710;9.590;2023-04-24T03:18:51;5.18;;;2.20;;
72949;SDS011;64868;45.710;9.590;2023-04-24T03:21:23;5.07;;;2.50;;
72949;SDS011;64868;45.710;9.590;2023-04-24T03:23:56;6.25;;;2.38;;
72949;SDS011;64868;45.710;9.590;2023-04-24T03:26:26;8.10;;;2.67;;
72949;SDS011;64868;45.710;9.590;2023-04-24T03:28:58;6.18;;;2.40;;
72949;SDS011;64868;45.710;9.590;2023-04-24T03:31:29;5.20;;;2.88;;
72949;SDS011;64868;45.710;9.590;2023-04-24T03:33:59;5.53;;;2.22;;
72949;SDS011;64868;45.710;9.590;2023-04-24T03:36:29;5.68;;;2.60;;
72949;SDS011;64868;45.710;9.590;2023-04-24T03:38:59;6.15;;;2.65;;
72949;SDS011;64868;45.710;9.590;2023-04-24T03:41:27;6.60;;;2.65;;
72949;SDS011;64868;45.710;9.590;2023-04-24T03:43:59;6.20;;;2.25;;
72949;SDS011;64868;45.710;9.590;2023-04-24T03:46:32;5.53;;;2.30;;
72949;SDS011;64868;45.710;9.590;2023-04-24T03:49:02;8.13;;;2.53;;
72949;SDS011;64868;45.710;9.590;2023-04-24T03:51:32;5.20;;;2.30;;
72949;SDS011;64868;45.710;9.590;2023-04-24T03:54:03;5.25;;;2.30;;
72949;SDS011;64868;45.710;9.590;2023-04-24T03:56:35;6.95;;;2.30;;
72949;SDS011;64868;45.710;9.590;2023-04-24T03:59:03;4.97;;;2.17;;
72949;SDS011;64868;45.710;9.590;2023-04-24T04:01:35;5.07;;;1.80;;
72949;SDS011;64868;45.710;9.590;2023-04-24T04:04:06;6.10;;;2.00;;
72949;SDS011;64868;45.710;9.590;2023-04-24T04:06:38;4.97;;;1.83;;
72949;SDS011;64868;45.710;9.590;2023-04-24T04:09:09;5.82;;;1.90;;
72949;SDS011;64868;45.710;9.590;2023-04-24T04:11:42;4.88;;;1.70;;
72949;SDS011;64868;45.710;9.590;2023-04-24T04:14:09;5.20;;;2.30;;
72949;SDS011;64868;45.710;9.590;2023-04-24T04:16:42;4.93;;;1.88;;
72949;SDS011;64868;45.710;9.590;2023-04-24T04:19:12;5.78;;;1.90;;
72949;SDS011;64868;45.710;9.590;2023-04-24T04:21:40;5.05;;;1.63;;
72949;SDS011;64868;45.710;9.590;2023-04-24T04:24:12;5.55;;;1.98;;
72949;SDS011;64868;45.710;9.590;2023-04-24T04:26:43;5.00;;;1.70;;
72949;SDS011;64868;45.710;9.590;2023-04-24T04:29:14;5.55;;;1.85;;
72949;SDS011;64868;45.710;9.590;2023-04-24T04:31:45;5.90;;;1.80;;
72949;SDS011;64868;45.710;9.590;2023-04-24T04:34:16;4.82;;;1.60;;
72949;SDS011;64868;45.710;9.590;2023-04-24T04:36:43;4.45;;;1.63;;
72949;SDS011;64868;45.710;9.590;2023-04-24T04:39:14;3.95;;;1.45;;
72949;SDS011;64868;45.710;9.590;2023-04-24T04:41:46;5.53;;;1.48;;
72949;SDS011;64868;45.710;9.590;2023-04-24T04:44:19;4.47;;;1.42;;
72949;SDS011;64868;45.710;9.590;2023-04-24T04:46:51;4.35;;;1.55;;
72949;SDS011;64868;45.710;9.590;2023-04-24T04:49:20;4.05;;;1.30;;
72949;SDS011;64868;45.710;9.590;2023-04-24T04:51:53;4.10;;;1.20;;
72949;SDS011;64868;45.710;9.590;2023-04-24T04:54:20;3.53;;;1.23;;
72949;SDS011;64868;45.710;9.590;2023-04-24T04:56:53;10.30;;;1.95;;
72949;SDS011;64868;45.710;9.590;2023-04-24T04:59:26;6.15;;;1.88;;
72949;SDS011;64868;45.710;9.590;2023-04-24T05:01:54;9.02;;;3.17;;
72949;SDS011;64868;45.710;9.590;2023-04-24T05:04:26;9.88;;;3.85;;
72949;SDS011;64868;45.710;9.590;2023-04-24T05:06:59;11.02;;;4.53;;
72949;SDS011;64868;45.710;9.590;2023-04-24T05:09:32;13.32;;;5.50;;
72949;SDS011;64868;45.710;9.590;2023-04-24T05:12:04;9.15;;;3.92;;
72949;SDS011;64868;45.710;9.590;2023-04-24T05:14:37;7.65;;;2.72;;
72949;SDS011;64868;45.710;9.590;2023-04-24T05:17:08;4.75;;;1.77;;
72949;SDS011;64868;45.710;9.590;2023-04-24T05:19:34;8.85;;;1.90;;
72949;SDS011;64868;45.710;9.590;2023-04-24T05:22:05;3.75;;;1.23;;
72949;SDS011;64868;45.710;9.590;2023-04-24T05:24:37;4.97;;;1.17;;
72949;SDS011;64868;45.710;9.590;2023-04-24T05:27:08;4.40;;;1.13;;
72949;SDS011;64868;45.710;9.590;2023-04-24T05:29:38;3.45;;;1.20;;
72949;SDS011;64868;45.710;9.590;2023-04-24T05:32:10;4.50;;;1.20;;
72949;SDS011;64868;45.710;9.590;2023-04-24T05:34:40;4.20;;;1.20;;
72949;SDS011;64868;45.710;9.590;2023-04-24T05:37:11;5.32;;;1.50;;
72949;SDS011;64868;45.710;9.590;2023-04-24T05:39:41;6.07;;;1.40;;
72949;SDS011;64868;45.710;9.590;2023-04-24T05:42:12;6.40;;;1.20;;
72949;SDS011;64868;45.710;9.590;2023-04-24T05:44:44;4.05;;;1.08;;
72949;SDS011;64868;45.710;9.590;2023-04-24T05:47:10;3.90;;;1.15;;
72949;SDS011;64868;45.710;9.590;2023-04-24T05:49:41;5.78;;;1.27;;
72949;SDS011;64868;45.710;9.590;2023-04-24T05:52:13;4.80;;;1.65;;
72949;SDS011;64868;45.710;9.590;2023-04-24T05:54:41;4.03;;;1.30;;
72949;SDS011;64868;45.710;9.590;2023-04-24T05:57:11;4.20;;;1.55;;
72949;SDS011;64868;45.710;9.590;2023-04-24T05:59:40;5.50;;;1.95;;
72949;SDS011;64868;45.710;9.590;2023-04-24T06:02:10;4.10;;;1.50;;
72949;SDS011;64868;45.710;9.590;2023-04-24T06:04:35;4.80;;;1.50;;
72949;SDS011;64868;45.710;9.590;2023-04-24T06:07:03;4.40;;;1.40;;
72949;SDS011;64868;45.710;9.590;2023-04-24T06:09:28;5.45;;;1.20;;
72949;SDS011;64868;45.710;9.590;2023-04-24T06:11:56;5.80;;;1.33;;
72949;SDS011;64868;45.710;9.590;2023-04-24T06:14:27;3.95;;;1.42;;
72949;SDS011;64868;45.710;9.590;2023-04-24T06:16:57;5.10;;;1.50;;
72949;SDS011;64868;45.710;9.590;2023-04-24T06:19:27;5.72;;;1.23;;
72949;SDS011;64868;45.710;9.590;2023-04-24T06:21:54;3.72;;;1.10;;
72949;SDS011;64868;45.710;9.590;2023-04-24T06:24:30;4.85;;;1.65;;
72949;SDS011;64868;45.710;9.590;2023-04-24T06:27:00;4.10;;;1.02;;
72949;SDS011;64868;45.710;9.590;2023-04-24T06:29:33;3.50;;;1.10;;
72949;SDS011;64868;45.710;9.590;2023-04-24T06:32:01;3.70;;;1.08;;
72949;SDS011;64868;45.710;9.590;2023-04-24T06:34:31;2.75;;;1.00;;
72949;SDS011;64868;45.710;9.590;2023-04-24T06:36:59;3.67;;;0.85;;
72949;SDS011;64868;45.710;9.590;2023-04-24T06:39:31;7.88;;;0.80;;
72949;SDS011;64868;45.710;9.590;2023-04-24T06:42:04;3.28;;;1.00;;
72949;SDS011;64868;45.710;9.590;2023-04-24T06:44:36;3.60;;;1.00;;
72949;SDS011;64868;45.710;9.590;2023-04-24T06:47:08;3.83;;;0.90;;
72949;SDS011;64868;45.710;9.590;2023-04-24T06:49:40;3.28;;;1.20;;
72949;SDS011;64868;45.710;9.590;2023-04-24T06:52:08;3.30;;;0.90;;
72949;SDS011;64868;45.710;9.590;2023-04-24T06:54:38;2.75;;;0.63;;
72949;SDS011;64868;45.710;9.590;2023-04-24T06:57:09;7.55;;;1.10;;
72949;SDS011;64868;45.710;9.590;2023-04-24T06:59:37;6.57;;;1.08;;
72949;SDS011;64868;45.710;9.590;2023-04-24T07:02:06;10.45;;;1.38;;
72949;SDS011;64868;45.710;9.590;2023-04-24T07:04:36;10.50;;;1.63;;
72949;SDS011;64868;45.710;9.590;2023-04-24T07:07:04;6.22;;;1.90;;
72949;SDS011;64868;45.710;9.590;2023-04-24T07:09:36;5.10;;;1.33;;
72949;SDS011;64868;45.710;9.590;2023-04-24T07:12:07;3.05;;;0.90;;
72949;SDS011;64868;45.710;9.590;2023-04-24T07:14:40;3.15;;;0.80;;
72949;SDS011;64868;45.710;9.590;2023-04-24T07:17:11;4.55;;;1.08;;
72949;SDS011;64868;45.710;9.590;2023-04-24T07:19:43;8.77;;;1.20;;
72949;SDS011;64868;45.710;9.590;2023-04-24T07:22:13;5.90;;;1.40;;
72949;SDS011;64868;45.710;9.590;2023-04-24T07:24:42;4.85;;;1.55;;
72949;SDS011;64868;45.710;9.590;2023-04-24T07:27:15;6.43;;;1.30;;
72949;SDS011;64868;45.710;9.590;2023-04-24T07:29:42;5.32;;;0.90;;
72949;SDS011;64868;45.710;9.590;2023-04-24T07:32:15;5.20;;;0.70;;
72949;SDS011;64868;45.710;9.590;2023-04-24T07:34:45;2.78;;;0.75;;
72949;SDS011;64868;45.710;9.590;2023-04-24T07:37:15;3.13;;;0.90;;
72949;SDS011;64868;45.710;9.590;2023-04-24T07:39:48;3.80;;;0.77;;
72949;SDS011;64868;45.710;9.590;2023-04-24T07:42:20;3.80;;;0.77;;
72949;SDS011;64868;45.710;9.590;2023-04-24T07:44:51;3.85;;;1.05;;
72949;SDS011;64868;45.710;9.590;2023-04-24T07:47:21;6.22;;;1.30;;
72949;SDS011;64868;45.710;9.590;2023-04-24T07:49:51;4.15;;;1.00;;
72949;SDS011;64868;45.710;9.590;2023-04-24T07:52:22;4.18;;;1.10;;
72949;SDS011;64868;45.710;9.590;2023-04-24T07:54:52;2.58;;;0.70;;
72949;SDS011;64868;45.710;9.590;2023-04-24T07:57:25;3.58;;;0.77;;
72949;SDS011;64868;45.710;9.590;2023-04-24T07:59:53;5.25;;;0.80;;
72949;SDS011;64868;45.710;9.590;2023-04-24T08:04:54;4.57;;;0.82;;
72949;SDS011;64868;45.710;9.590;2023-04-24T08:07:27;2.58;;;0.80;;
72949;SDS011;64868;45.710;9.590;2023-04-24T08:09:57;2.85;;;0.73;;
72949;SDS011;64868;45.710;9.590;2023-04-24T08:12:24;4.68;;;1.02;;
72949;SDS011;64868;45.710;9.590;2023-04-24T08:14:55;2.72;;;0.70;;
72949;SDS011;64868;45.710;9.590;2023-04-24T08:17:25;6.20;;;0.90;;
72949;SDS011;64868;45.710;9.590;2023-04-24T08:19:55;2.88;;;0.80;;
72949;SDS011;64868;45.710;9.590;2023-04-24T08:22:28;2.95;;;0.82;;
72949;SDS011;64868;45.710;9.590;2023-04-24T08:25:01;2.42;;;0.70;;
72949;SDS011;64868;45.710;9.590;2023-04-24T08:27:33;1.88;;;0.50;;
72949;SDS011;64868;45.710;9.590;2023-04-24T08:30:01;2.05;;;0.63;;
72949;SDS011;64868;45.710;9.590;2023-04-24T08:32:30;2.70;;;0.45;;
72949;SDS011;64868;45.710;9.590;2023-04-24T08:34:58;1.92;;;0.60;;
72949;SDS011;64868;45.710;9.590;2023-04-24T08:37:29;3.20;;;0.63;;
72949;SDS011;64868;45.710;9.590;2023-04-24T08:40:03;1.52;;;0.43;;
72949;SDS011;64868;45.710;9.590;2023-04-24T08:42:41;1.95;;;0.50;;
72949;SDS011;64868;45.710;9.590;2023-04-24T08:45:14;2.72;;;0.40;;
72949;SDS011;64868;45.710;9.590;2023-04-24T08:47:47;2.55;;;0.60;;
72949;SDS011;64868;45.710;9.590;2023-04-24T08:50:22;2.47;;;0.70;;
72949;SDS011;64868;45.710;9.590;2023-04-24T08:52:51;1.73;;;0.50;;
72949;SDS011;64868;45.710;9.590;2023-04-24T08:55:24;2.92;;;0.60;;
72949;SDS011;64868;45.710;9.590;2023-04-24T08:57:59;1.73;;;0.40;;
72949;SDS011;64868;45.710;9.590;2023-04-24T09:00:30;1.80;;;0.47;;
72949;SDS011;64868;45.710;9.590;2023-04-24T09:03:00;1.80;;;0.50;;
72949;SDS011;64868;45.710;9.590;2023-04-24T09:05:32;3.03;;;0.63;;
72949;SDS011;64868;45.710;9.590;2023-04-24T09:08:00;2.00;;;0.50;;
72949;SDS011;64868;45.710;9.590;2023-04-24T09:10:29;1.63;;;0.40;;
72949;SDS011;64868;45.710;9.590;2023-04-24T09:13:00;3.92;;;0.50;;
72949;SDS011;64868;45.710;9.590;2023-04-24T09:15:31;1.45;;;0.50;;
72949;SDS011;64868;45.710;9.590;2023-04-24T09:18:01;2.08;;;0.50;;
72949;SDS011;64868;45.710;9.590;2023-04-24T09:20:34;2.30;;;0.50;;
72949;SDS011;64868;45.710;9.590;2023-04-24T09:23:25;1.70;;;0.45;;
72949;SDS011;64868;45.710;9.590;2023-04-24T09:25:56;1.65;;;0.50;;
72949;SDS011;64868;45.710;9.590;2023-04-24T09:31:06;3.30;;;0.52;;
72949;SDS011;64868;45.710;9.590;2023-04-24T09:33:42;3.17;;;0.70;;
72949;SDS011;64868;45.710;9.590;2023-04-24T09:36:33;3.35;;;0.80;;
72949;SDS011;64868;45.710;9.590;2023-04-24T09:39:05;2.00;;;0.40;;
72949;SDS011;64868;45.710;9.590;2023-04-24T09:41:38;1.15;;;0.32;;
72949;SDS011;64868;45.710;9.590;2023-04-24T09:44:19;1.70;;;0.43;;
72949;SDS011;64868;45.710;9.590;2023-04-24T09:46:59;1.65;;;0.40;;
72949;SDS011;64868;45.710;9.590;2023-04-24T09:49:32;1.92;;;0.40;;
72949;SDS011;64868;45.710;9.590;2023-04-24T09:52:04;1.40;;;0.40;;
72949;SDS011;64868;45.710;9.590;2023-04-24T09:54:37;1.85;;;0.30;;
72949;SDS011;64868;45.710;9.590;2023-04-24T09:57:10;2.42;;;0.55;;
72949;SDS011;64868;45.710;9.590;2023-04-24T09:59:38;2.10;;;0.40;;
72949;SDS011;64868;45.710;9.590;2023-04-24T10:02:19;2.03;;;0.30;;
72949;SDS011;64868;45.710;9.590;2023-04-24T10:04:55;1.23;;;0.40;;
72949;SDS011;64868;45.710;9.590;2023-04-24T10:07:28;3.03;;;0.55;;
72949;SDS011;64868;45.710;9.590;2023-04-24T10:09:57;3.20;;;1.00;;
72949;SDS011;64868;45.710;9.590;2023-04-24T10:12:28;8.52;;;4.07;;
72949;SDS011;64868;45.710;9.590;2023-04-24T10:14:57;5.13;;;1.70;;
72949;SDS011;64868;45.710;9.590;2023-04-24T10:17:26;2.72;;;0.50;;
72949;SDS011;64868;45.710;9.590;2023-04-24T10:22:29;2.08;;;0.57;;
72949;SDS011;64868;45.710;9.590;2023-04-24T10:24:59;5.25;;;1.02;;
72949;SDS011;64868;45.710;9.590;2023-04-24T10:27:28;4.13;;;1.05;;
72949;SDS011;64868;45.710;9.590;2023-04-24T10:29:57;3.10;;;0.63;;
72949;SDS011;64868;45.710;9.590;2023-04-24T10:32:26;2.40;;;0.60;;
72949;SDS011;64868;45.710;9.590;2023-04-24T10:34:58;3.10;;;0.70;;
72949;SDS011;64868;45.710;9.590;2023-04-24T10:37:31;3.83;;;0.90;;
72949;SDS011;64868;45.710;9.590;2023-04-24T10:40:04;8.93;;;2.90;;
72949;SDS011;64868;45.710;9.590;2023-04-24T10:42:32;5.85;;;1.98;;
72949;SDS011;64868;45.710;9.590;2023-04-24T10:45:07;6.43;;;2.65;;
72949;SDS011;64868;45.710;9.590;2023-04-24T10:48:04;5.68;;;1.92;;
72949;SDS011;64868;45.710;9.590;2023-04-24T10:50:42;7.38;;;3.35;;
72949;SDS011;64868;45.710;9.590;2023-04-24T10:53:21;8.40;;;4.10;;
72949;SDS011;64868;45.710;9.590;2023-04-24T10:56:10;6.50;;;2.28;;
72949;SDS011;64868;45.710;9.590;2023-04-24T10:58:47;4.15;;;0.98;;
72949;SDS011;64868;45.710;9.590;2023-04-24T11:01:26;4.80;;;1.10;;
72949;SDS011;64868;45.710;9.590;2023-04-24T11:03:59;4.90;;;1.40;;
72949;SDS011;64868;45.710;9.590;2023-04-24T11:06:29;5.63;;;1.80;;
72949;SDS011;64868;45.710;9.590;2023-04-24T11:09:06;7.40;;;2.85;;
72949;SDS011;64868;45.710;9.590;2023-04-24T11:11:42;9.52;;;1.63;;
72949;SDS011;64868;45.710;9.590;2023-04-24T11:14:16;4.28;;;1.00;;
72949;SDS011;64868;45.710;9.590;2023-04-24T11:16:55;4.05;;;1.20;;
72949;SDS011;64868;45.710;9.590;2023-04-24T11:19:25;3.72;;;0.82;;
72949;SDS011;64868;45.710;9.590;2023-04-24T11:24:29;4.15;;;1.05;;
72949;SDS011;64868;45.710;9.590;2023-04-24T11:27:03;3.05;;;0.80;;
72949;SDS011;64868;45.710;9.590;2023-04-24T11:32:30;2.50;;;0.60;;
72949;SDS011;64868;45.710;9.590;2023-04-24T11:35:07;2.50;;;0.52;;
72949;SDS011;64868;45.710;9.590;2023-04-24T11:37:44;3.80;;;0.90;;
72949;SDS011;64868;45.710;9.590;2023-04-24T11:40:19;2.75;;;0.77;;
72949;SDS011;64868;45.710;9.590;2023-04-24T11:42:50;3.08;;;0.80;;
72949;SDS011;64868;45.710;9.590;2023-04-24T11:45:27;2.50;;;0.65;;
72949;SDS011;64868;45.710;9.590;2023-04-24T11:47:56;2.22;;;0.60;;
72949;SDS011;64868;45.710;9.590;2023-04-24T11:50:27;3.30;;;0.70;;
72949;SDS011;64868;45.710;9.590;2023-04-24T11:52:57;4.57;;;1.05;;
72949;SDS011;64868;45.710;9.590;2023-04-24T11:55:30;1.60;;;0.40;;
72949;SDS011;64868;45.710;9.590;2023-04-24T11:58:00;3.13;;;0.52;;
72949;SDS011;64868;45.710;9.590;2023-04-24T12:00:31;3.33;;;0.60;;
72949;SDS011;64868;45.710;9.590;2023-04-24T12:03:08;3.50;;;0.60;;
72949;SDS011;64868;45.710;9.590;2023-04-24T12:05:41;3.10;;;0.80;;
72949;SDS011;64868;45.710;9.590;2023-04-24T12:08:12;6.28;;;1.00;;
72949;SDS011;64868;45.710;9.590;2023-04-24T12:10:54;4.13;;;0.65;;
72949;SDS011;64868;45.710;9.590;2023-04-24T12:13:26;1.80;;;0.40;;
72949;SDS011;64868;45.710;9.590;2023-04-24T12:15:56;3.75;;;0.80;;
72949;SDS011;64868;45.710;9.590;2023-04-24T12:18:29;4.30;;;0.40;;
72949;SDS011;64868;45.710;9.590;2023-04-24T12:21:16;2.13;;;0.40;;
72949;SDS011;64868;45.710;9.590;2023-04-24T12:23:48;2.40;;;0.30;;
72949;SDS011;64868;45.710;9.590;2023-04-24T12:26:18;2.72;;;0.60;;
72949;SDS011;64868;45.710;9.590;2023-04-24T12:28:49;1.83;;;0.40;;
72949;SDS011;64868;45.710;9.590;2023-04-24T12:31:22;2.20;;;0.50;;
72949;SDS011;64868;45.710;9.590;2023-04-24T12:33:53;1.38;;;0.40;;
72949;SDS011;64868;45.710;9.590;2023-04-24T12:36:22;1.73;;;0.40;;
72949;SDS011;64868;45.710;9.590;2023-04-24T12:38:47;1.58;;;0.32;;
72949;SDS011;64868;45.710;9.590;2023-04-24T12:41:24;2.35;;;0.40;;
72949;SDS011;64868;45.710;9.590;2023-04-24T12:43:55;2.05;;;0.60;;
72949;SDS011;64868;45.710;9.590;2023-04-24T12:46:26;3.20;;;0.63;;
72949;SDS011;64868;45.710;9.590;2023-04-24T12:48:53;1.15;;;0.40;;
72949;SDS011;64868;45.710;9.590;2023-04-24T12:51:21;3.78;;;0.50;;
72949;SDS011;64868;45.710;9.590;2023-04-24T12:53:50;2.35;;;0.50;;
72949;SDS011;64868;45.710;9.590;2023-04-24T12:56:18;3.13;;;0.40;;
72949;SDS011;64868;45.710;9.590;2023-04-24T12:58:48;2.13;;;0.30;;
72949;SDS011;64868;45.710;9.590;2023-04-24T13:01:17;4.47;;;0.38;;
72949;SDS011;64868;45.710;9.590;2023-04-24T13:03:47;2.40;;;0.50;;
72949;SDS011;64868;45.710;9.590;2023-04-24T13:06:17;2.88;;;0.30;;
72949;SDS011;64868;45.710;9.590;2023-04-24T13:08:47;1.35;;;0.40;;
72949;SDS011;64868;45.710;9.590;2023-04-24T13:11:18;1.77;;;0.40;;
72949;SDS011;64868;45.710;9.590;2023-04-24T13:13:49;1.67;;;0.47;;
72949;SDS011;64868;45.710;9.590;2023-04-24T13:16:22;2.03;;;0.50;;
72949;SDS011;64868;45.710;9.590;2023-04-24T13:18:52;4.72;;;0.50;;
72949;SDS011;64868;45.710;9.590;2023-04-24T13:21:24;3.92;;;0.63;;
72949;SDS011;64868;45.710;9.590;2023-04-24T13:23:53;3.92;;;0.60;;
72949;SDS011;64868;45.710;9.590;2023-04-24T13:26:26;1.42;;;0.20;;
72949;SDS011;64868;45.710;9.590;2023-04-24T13:28:58;2.80;;;0.30;;
72949;SDS011;64868;45.710;9.590;2023-04-24T13:31:31;0.73;;;0.30;;
72949;SDS011;64868;45.710;9.590;2023-04-24T13:34:04;2.55;;;0.40;;
72949;SDS011;64868;45.710;9.590;2023-04-24T13:36:34;2.55;;;0.47;;
72949;SDS011;64868;45.710;9.590;2023-04-24T13:39:07;0.98;;;0.30;;
72949;SDS011;64868;45.710;9.590;2023-04-24T13:41:40;1.85;;;0.40;;
72949;SDS011;64868;45.710;9.590;2023-04-24T13:44:10;7.50;;;0.38;;
72949;SDS011;64868;45.710;9.590;2023-04-24T13:46:40;2.00;;;0.38;;
72949;SDS011;64868;45.710;9.590;2023-04-24T13:49:10;2.83;;;0.52;;
72949;SDS011;64868;45.710;9.590;2023-04-24T13:51:41;2.05;;;0.30;;
72949;SDS011;64868;45.710;9.590;2023-04-24T13:54:14;3.00;;;0.30;;
72949;SDS011;64868;45.710;9.590;2023-04-24T13:56:46;1.80;;;0.40;;
72949;SDS011;64868;45.710;9.590;2023-04-24T13:59:19;1.65;;;0.38;;
72949;SDS011;64868;45.710;9.590;2023-04-24T14:01:52;2.15;;;0.30;;
72949;SDS011;64868;45.710;9.590;2023-04-24T14:04:23;2.17;;;0.30;;
72949;SDS011;64868;45.710;9.590;2023-04-24T14:06:56;1.70;;;0.38;;
72949;SDS011;64868;45.710;9.590;2023-04-24T14:09:28;1.50;;;0.32;;
72949;SDS011;64868;45.710;9.590;2023-04-24T14:11:59;3.15;;;0.30;;
72949;SDS011;64868;45.710;9.590;2023-04-24T14:14:27;3.50;;;0.50;;
72949;SDS011;64868;45.710;9.590;2023-04-24T14:16:52;2.90;;;0.40;;
72949;SDS011;64868;45.710;9.590;2023-04-24T14:19:22;3.20;;;0.60;;
72949;SDS011;64868;45.710;9.590;2023-04-24T14:21:52;2.60;;;0.60;;
72949;SDS011;64868;45.710;9.590;2023-04-24T14:24:25;2.42;;;0.40;;
72949;SDS011;64868;45.710;9.590;2023-04-24T14:26:55;7.25;;;0.65;;
72949;SDS011;64868;45.710;9.590;2023-04-24T14:29:28;4.63;;;0.70;;
72949;SDS011;64868;45.710;9.590;2023-04-24T14:31:58;8.27;;;0.50;;
72949;SDS011;64868;45.710;9.590;2023-04-24T14:34:28;4.85;;;0.55;;
72949;SDS011;64868;45.710;9.590;2023-04-24T14:37:00;3.67;;;0.60;;
72949;SDS011;64868;45.710;9.590;2023-04-24T14:39:28;11.80;;;1.23;;
72949;SDS011;64868;45.710;9.590;2023-04-24T14:41:58;1.95;;;0.43;;
72949;SDS011;64868;45.710;9.590;2023-04-24T14:44:27;1.65;;;0.40;;
72949;SDS011;64868;45.710;9.590;2023-04-24T14:46:59;1.00;;;0.30;;
72949;SDS011;64868;45.710;9.590;2023-04-24T14:49:27;1.42;;;0.32;;
72949;SDS011;64868;45.710;9.590;2023-04-24T14:51:57;8.43;;;0.65;;
72949;SDS011;64868;45.710;9.590;2023-04-24T14:54:30;2.67;;;0.32;;
72949;SDS011;64868;45.710;9.590;2023-04-24T14:56:55;2.30;;;0.50;;
72949;SDS011;64868;45.710;9.590;2023-04-24T14:59:26;2.15;;;0.40;;
72949;SDS011;64868;45.710;9.590;2023-04-24T15:01:56;3.75;;;0.73;;
72949;SDS011;64868;45.710;9.590;2023-04-24T15:04:29;2.00;;;0.43;;
72949;SDS011;64868;45.710;9.590;2023-04-24T15:06:59;1.88;;;0.40;;
72949;SDS011;64868;45.710;9.590;2023-04-24T15:09:25;1.75;;;0.43;;
72949;SDS011;64868;45.710;9.590;2023-04-24T15:11:53;2.90;;;0.50;;
72949;SDS011;64868;45.710;9.590;2023-04-24T15:14:26;2.65;;;0.43;;
72949;SDS011;64868;45.710;9.590;2023-04-24T15:16:57;0.95;;;0.30;;
72949;SDS011;64868;45.710;9.590;2023-04-24T15:19:27;1.10;;;0.25;;
72949;SDS011;64868;45.710;9.590;2023-04-24T15:22:00;3.33;;;0.40;;
72949;SDS011;64868;45.710;9.590;2023-04-24T15:24:28;2.10;;;0.30;;